Time;durP1;ratioP1;P1;durP2;ratioP2;P2;SDS_P1;SDS_P2;PMS_P1;PMS_P2;Temp;Humidity;BMP_temperature;BMP_pressure;BME280_temperature;BME280_humidity;BME280_pressure;Samples;Min_cycle;Max_cycle;Signal;HPM_P1;HPM_P2
2022/07/27 00:01:53;;;;;;;11.57;10.70;;;;;;;27.11;57.74;98856.81;5070389;28;20195;-67
2022/07/27 00:04:20;;;;;;;14.33;10.67;;;;;;;27.13;57.19;98857.28;5071008;28;20223;-66
2022/07/27 00:06:47;;;;;;;11.70;10.80;;;;;;;27.04;57.45;98854.56;5071322;28;20196;-66
2022/07/27 00:09:13;;;;;;;13.30;11.97;;;;;;;26.93;58.08;98857.88;5071353;28;20745;-71
2022/07/27 00:11:40;;;;;;;17.13;12.63;;;;;;;26.83;58.53;98866.38;5072581;28;20188;-66
2022/07/27 00:14:07;;;;;;;10.03;9.13;;;;;;;26.73;57.98;98867.44;5075100;28;20192;-69
2022/07/27 00:16:33;;;;;;;12.30;11.40;;;;;;;26.75;53.92;98867.91;5074290;28;20249;-70
2022/07/27 00:19:01;;;;;;;8.87;5.07;;;;;;;26.71;46.08;98874.34;5074127;28;20200;-70
2022/07/27 00:21:28;;;;;;;7.50;7.00;;;;;;;26.81;47.93;98879.47;5074646;28;20196;-70
2022/07/27 00:23:55;;;;;;;9.20;8.60;;;;;;;26.87;51.44;98879.03;5074496;28;20658;-69
2022/07/27 00:26:22;;;;;;;13.03;11.73;;;;;;;26.85;55.62;98872.28;5074399;28;20721;-69
2022/07/27 00:28:49;;;;;;;13.63;12.60;;;;;;;26.70;57.25;98875.47;5074724;28;20200;-70
2022/07/27 00:31:16;;;;;;;11.60;10.40;;;;;;;26.59;56.23;98874.94;5074356;28;20265;-70
2022/07/27 00:33:43;;;;;;;10.97;10.17;;;;;;;26.66;55.13;98878.00;5074487;28;20200;-72
2022/07/27 00:36:11;;;;;;;10.73;10.00;;;;;;;26.76;54.78;98879.63;5074257;28;20269;-70
2022/07/27 00:38:38;;;;;;;10.40;9.67;;;;;;;26.78;55.20;98880.16;5073700;28;20196;-70
2022/07/27 00:41:05;;;;;;;11.63;10.70;;;;;;;26.81;54.95;98879.47;5073394;28;20192;-70
2022/07/27 00:43:32;;;;;;;11.67;10.73;;;;;;;26.93;54.48;98887.84;5074157;28;20277;-70
2022/07/27 00:45:59;;;;;;;13.07;11.80;;;;;;;26.90;55.57;98874.88;5072870;28;20715;-73
2022/07/27 00:48:27;;;;;;;11.70;10.80;;;;;;;26.97;54.85;98883.38;5073939;28;20757;-70
2022/07/27 00:50:56;;;;;;;12.30;11.17;;;;;;;26.99;55.08;98881.16;5073007;28;20660;-73
2022/07/27 00:53:24;;;;;;;12.07;10.80;;;;;;;27.01;55.69;98879.72;5073281;28;20680;-71
2022/07/27 00:55:51;;;;;;;12.37;11.23;;;;;;;27.05;55.57;98885.31;5072491;28;20188;-76
2022/07/27 00:58:18;;;;;;;12.53;11.60;;;;;;;27.08;55.46;98881.97;5073726;28;20245;-70
2022/07/27 01:00:45;;;;;;;12.30;11.30;;;;;;;27.11;54.90;98884.06;5072683;28;20234;-71
2022/07/27 01:03:12;;;;;;;11.50;10.70;;;;;;;27.21;54.44;98889.25;5073774;28;20220;-70
2022/07/27 01:05:39;;;;;;;11.13;10.50;;;;;;;27.18;54.73;98892.56;5073776;28;20199;-70
2022/07/27 01:08:07;;;;;;;12.07;11.17;;;;;;;27.17;55.27;98882.78;5073709;28;20191;-75
2022/07/27 01:10:35;;;;;;;12.90;11.90;;;;;;;27.17;55.33;98883.59;5073849;28;20196;-70
2022/07/27 01:13:03;;;;;;;12.40;11.30;;;;;;;27.16;56.17;98887.44;5073968;28;20261;-71
2022/07/27 01:15:29;;;;;;;13.50;12.23;;;;;;;27.03;56.77;98884.84;5074048;28;20250;-70
2022/07/27 01:17:56;;;;;;;12.03;11.03;;;;;;;26.84;57.28;98885.13;5073550;28;20734;-70
2022/07/27 01:20:23;;;;;;;12.37;11.57;;;;;;;26.79;56.85;98884.47;5073597;28;20188;-70
2022/07/27 01:22:51;;;;;;;12.10;11.23;;;;;;;26.85;56.94;98886.72;5072528;28;20592;-70
2022/07/27 01:25:18;;;;;;;12.03;11.03;;;;;;;26.88;55.93;98886.09;5073402;28;20277;-70
2022/07/27 01:27:45;;;;;;;11.93;11.23;;;;;;;26.92;55.70;98889.81;5073331;28;20785;-70
2022/07/27 01:30:29;;;;;;;13.30;12.20;;;;;;;26.92;56.42;98891.72;5073322;28;20192;-71
2022/07/27 01:33:00;;;;;;;11.73;10.70;;;;;;;26.83;56.15;98888.16;5073319;28;20196;-70
2022/07/27 01:35:28;;;;;;;11.73;11.03;;;;;;;26.94;55.60;98889.47;5073588;28;20614;-71
2022/07/27 01:37:57;;;;;;;11.70;10.93;;;;;;;26.94;55.23;98900.38;5073470;28;20192;-71
2022/07/27 01:40:24;;;;;;;11.20;10.50;;;;;;;26.90;55.59;98900.19;5073112;28;20249;-71
2022/07/27 01:42:51;;;;;;;11.13;10.43;;;;;;;26.96;55.13;98898.13;5072432;28;20299;-71
2022/07/27 01:45:18;;;;;;;11.37;10.30;;;;;;;26.97;54.77;98894.28;5073029;28;20192;-70
2022/07/27 01:47:45;;;;;;;11.90;10.90;;;;;;;27.01;55.05;98889.81;5072476;28;20231;-70
2022/07/27 01:50:12;;;;;;;12.37;11.57;;;;;;;26.95;55.86;98891.88;5073472;28;20192;-70
2022/07/27 01:52:39;;;;;;;12.57;11.23;;;;;;;26.88;56.19;98886.09;5072904;28;20791;-71
2022/07/27 01:55:09;;;;;;;11.27;10.53;;;;;;;26.95;55.33;98885.63;5072744;28;20284;-71
2022/07/27 01:57:36;;;;;;;13.10;11.90;;;;;;;26.81;55.85;98869.41;5074019;28;20184;-71
2022/07/27 02:00:04;;;;;;;12.93;11.93;;;;;;;26.85;56.67;98885.91;5073293;28;20196;-71
2022/07/27 02:02:31;;;;;;;13.40;12.27;;;;;;;26.87;56.17;98891.88;5073187;28;20261;-71
2022/07/27 02:04:58;;;;;;;12.90;12.00;;;;;;;26.75;57.38;98897.13;5072953;28;20192;-71
2022/07/27 02:07:25;;;;;;;14.93;13.37;;;;;;;26.69;57.43;98893.72;5072705;28;20261;-71
2022/07/27 02:09:52;;;;;;;14.10;13.03;;;;;;;26.64;57.77;98895.78;5072277;28;20196;-71
2022/07/27 02:12:34;;;;;;;13.53;12.30;;;;;;;26.61;57.54;98901.84;5071780;28;20200;-74
2022/07/27 02:15:01;;;;;;;13.23;12.33;;;;;;;26.63;57.54;98895.00;5072030;28;20191;-71
2022/07/27 02:17:27;;;;;;;13.40;12.40;;;;;;;26.63;57.79;98895.00;5071849;28;20192;-70
2022/07/27 02:19:54;;;;;;;13.30;12.47;;;;;;;26.66;57.07;98905.25;5071659;28;20196;-69
2022/07/27 02:22:21;;;;;;;14.43;13.20;;;;;;;26.69;57.17;98899.19;5071520;28;20672;-70
2022/07/27 02:24:47;;;;;;;13.23;12.20;;;;;;;26.67;57.70;98898.69;5071776;28;20224;-69
2022/07/27 02:27:14;;;;;;;14.43;13.33;;;;;;;26.56;58.05;98899.25;5072013;28;20275;-72
2022/07/27 02:29:43;;;;;;;13.97;12.67;;;;;;;26.32;58.60;98898.81;5071753;28;20231;-70
2022/07/27 02:32:09;;;;;;;15.53;12.87;;;;;;;26.20;59.31;98898.56;5071448;28;20204;-72
2022/07/27 02:34:36;;;;;;;13.53;12.30;;;;;;;26.18;59.50;98892.66;5072544;28;20227;-71
2022/07/27 02:37:03;;;;;;;13.73;12.73;;;;;;;26.21;59.16;98897.47;5071932;28;20192;-69
2022/07/27 02:39:30;;;;;;;12.93;12.00;;;;;;;26.22;58.85;98899.09;5072349;28;20200;-71
2022/07/27 02:41:56;;;;;;;13.57;12.20;;;;;;;26.30;59.19;98893.66;5072294;28;20199;-70
2022/07/27 02:44:23;;;;;;;14.77;13.30;;;;;;;26.37;58.58;98891.31;5071442;28;20220;-70
2022/07/27 02:46:51;;;;;;;13.73;12.53;;;;;;;26.41;58.42;98875.16;5072010;28;20672;-69
2022/07/27 02:49:18;;;;;;;13.40;12.20;;;;;;;26.50;58.04;98900.50;5071115;28;20235;-70
2022/07/27 02:51:45;;;;;;;14.00;12.63;;;;;;;26.54;58.39;98901.50;5071763;28;20200;-70
2022/07/27 02:54:11;;;;;;;14.87;13.47;;;;;;;26.55;58.67;98905.81;5071283;28;20211;-69
2022/07/27 02:56:38;;;;;;;13.47;12.00;;;;;;;26.60;57.92;98905.72;5070891;28;20269;-69
2022/07/27 02:59:05;;;;;;;13.73;12.60;;;;;;;26.67;58.12;98895.16;5071669;28;20195;-69
2022/07/27 03:01:32;;;;;;;13.93;12.53;;;;;;;26.67;57.82;98911.50;5070789;28;20732;-73
2022/07/27 03:04:00;;;;;;;13.63;12.40;;;;;;;26.71;57.38;98915.22;5071482;28;20223;-70
2022/07/27 03:06:26;;;;;;;13.07;11.97;;;;;;;26.74;57.50;98918.09;5071770;28;20196;-70
2022/07/27 03:08:53;;;;;;;14.47;13.07;;;;;;;26.76;57.06;98920.53;5071145;28;20547;-70
2022/07/27 03:11:20;;;;;;;18.77;13.77;;;;;;;26.61;58.06;98920.94;5070897;28;20196;-69
2022/07/27 03:13:47;;;;;;;16.30;14.73;;;;;;;26.49;58.43;98920.69;5071272;28;20207;-70
2022/07/27 03:16:13;;;;;;;17.57;15.97;;;;;;;26.30;58.58;98917.41;5070566;28;20200;-70
2022/07/27 03:18:40;;;;;;;15.67;14.07;;;;;;;26.20;59.16;98925.81;5071044;28;20261;-70
2022/07/27 03:21:08;;;;;;;17.37;15.20;;;;;;;26.31;58.81;98919.00;5071254;28;20191;-69
2022/07/27 03:23:35;;;;;;;20.13;17.00;;;;;;;26.25;59.09;98925.69;5071009;28;20222;-69
2022/07/27 03:26:02;;;;;;;18.23;16.70;;;;;;;26.12;59.23;98930.09;5071232;28;20274;-69
2022/07/27 03:28:28;;;;;;;18.70;14.83;;;;;;;26.03;59.47;98929.22;5070994;28;20193;-71
2022/07/27 03:30:55;;;;;;;15.83;14.30;;;;;;;26.22;59.07;98939.94;5069768;28;20195;-70
2022/07/27 03:33:22;;;;;;;18.30;15.53;;;;;;;26.20;58.85;98950.31;5070635;28;20640;-70
2022/07/27 03:35:49;;;;;;;15.90;14.57;;;;;;;26.12;59.73;98942.88;5070870;28;20241;-70
2022/07/27 03:38:17;;;;;;;15.57;14.17;;;;;;;26.25;59.03;98950.22;5070528;28;20196;-69
2022/07/27 03:40:44;;;;;;;16.00;13.67;;;;;;;26.44;58.32;98953.50;5071109;28;20298;-71
2022/07/27 03:43:10;;;;;;;17.73;15.23;;;;;;;26.39;58.31;98948.19;5070674;28;20319;-70
2022/07/27 03:45:37;;;;;;;14.97;13.53;;;;;;;26.45;58.52;98946.97;5071406;28;20200;-69
2022/07/27 03:48:05;;;;;;;14.70;13.50;;;;;;;26.56;57.46;98949.09;5075258;28;20223;-69
2022/07/27 03:50:31;;;;;;;16.27;12.63;;;;;;;26.66;57.42;98953.50;5074231;28;20192;-72
2022/07/27 03:52:58;;;;;;;15.00;12.50;;;;;;;26.57;58.62;98960.78;5075460;28;20191;-70
2022/07/27 03:55:26;;;;;;;15.17;13.53;;;;;;;26.69;57.64;98963.75;5074166;28;20269;-70
2022/07/27 03:57:53;;;;;;;15.70;14.13;;;;;;;26.76;57.16;98958.69;5075114;28;20660;-70
2022/07/27 04:00:20;;;;;;;16.03;14.40;;;;;;;26.77;57.26;98966.53;5074427;28;20245;-70
2022/07/27 04:02:46;;;;;;;16.43;14.90;;;;;;;26.70;57.82;98965.41;5074755;28;20196;-70
2022/07/27 04:05:13;;;;;;;15.43;14.03;;;;;;;26.53;58.47;98959.81;5074878;28;20273;-70
2022/07/27 04:07:41;;;;;;;18.23;13.80;;;;;;;26.52;58.24;98974.53;5074681;28;20207;-73
2022/07/27 04:10:09;;;;;;;15.83;14.43;;;;;;;26.85;57.39;98967.69;5074627;28;20273;-70
2022/07/27 04:12:38;;;;;;;14.70;13.57;;;;;;;27.27;55.82;98969.81;5073378;28;20664;-70
2022/07/27 04:15:05;;;;;;;14.53;13.20;;;;;;;27.70;54.35;98970.66;5074450;28;20207;-70
2022/07/27 04:17:32;;;;;;;15.87;13.93;;;;;;;28.27;51.99;98972.94;5073554;28;20249;-70
2022/07/27 04:19:59;;;;;;;18.47;14.43;;;;;;;28.70;50.48;98981.84;5073323;28;20569;-73
2022/07/27 04:22:27;;;;;;;16.23;12.90;;;;;;;29.09;49.25;98989.78;5074019;28;20241;-70
2022/07/27 04:24:53;;;;;;;14.77;13.17;;;;;;;29.61;47.18;98984.84;5073882;28;20253;-71
2022/07/27 04:27:20;;;;;;;16.47;13.37;;;;;;;30.00;46.42;99000.81;5074324;28;20192;-71
2022/07/27 04:29:48;;;;;;;12.80;11.00;;;;;;;30.38;45.17;99001.47;5074700;28;20242;-73
2022/07/27 04:32:15;;;;;;;14.07;12.67;;;;;;;30.76;43.95;99006.75;5073642;28;20809;-71
2022/07/27 04:34:42;;;;;;;17.87;13.57;;;;;;;31.16;42.47;99002.25;5074208;28;20260;-71
2022/07/27 04:37:08;;;;;;;17.33;13.47;;;;;;;31.38;41.75;99002.63;5072960;28;20721;-71
2022/07/27 04:39:35;;;;;;;15.47;13.87;;;;;;;31.57;41.60;99019.31;5073873;28;20195;-71
2022/07/27 04:42:02;;;;;;;15.10;13.53;;;;;;;31.84;40.77;99010.34;5073859;28;20192;-72
2022/07/27 04:44:28;;;;;;;17.73;14.30;;;;;;;32.22;39.86;99007.94;5074001;28;20701;-70
2022/07/27 04:46:56;;;;;;;17.00;14.77;;;;;;;32.37;39.56;99020.16;5074588;28;20196;-71
2022/07/27 04:49:24;;;;;;;13.33;12.23;;;;;;;32.22;39.70;99013.44;5074152;28;20309;-70
2022/07/27 04:51:50;;;;;;;21.13;14.07;;;;;;;32.57;38.87;99014.47;5073896;28;20196;-70
2022/07/27 04:54:17;;;;;;;19.87;13.83;;;;;;;32.63;39.05;99013.06;5073422;28;20687;-73
2022/07/27 04:56:44;;;;;;;24.83;14.63;;;;;;;32.93;38.21;99011.53;5073468;28;20250;-65
2022/07/27 04:59:11;;;;;;;15.93;13.50;;;;;;;32.79;38.70;99021.34;5071530;28;20253;-66
2022/07/27 05:01:38;;;;;;;12.83;11.57;;;;;;;33.15;37.56;99030.19;5072837;28;20192;-67
2022/07/27 05:04:06;;;;;;;13.57;12.57;;;;;;;33.57;37.37;99035.16;5073019;28;20300;-69
2022/07/27 05:06:33;;;;;;;19.97;12.20;;;;;;;34.01;36.06;99042.88;5073445;28;20246;-66
2022/07/27 05:09:00;;;;;;;15.83;12.73;;;;;;;34.49;35.25;99038.81;5073899;28;20291;-67
2022/07/27 05:11:26;;;;;;;14.47;12.47;;;;;;;34.79;34.76;99050.84;5074194;28;20196;-66
2022/07/27 05:13:53;;;;;;;17.35;12.48;;;;;;;34.98;34.37;99043.31;5073348;28;20246;-66
2022/07/27 05:16:20;;;;;;;25.75;12.20;;;;;;;34.96;34.69;99042.09;5073046;28;20192;-66
2022/07/27 05:18:47;;;;;;;18.13;12.50;;;;;;;35.23;34.36;99055.59;5072580;28;20191;-69
2022/07/27 05:21:15;;;;;;;21.17;12.27;;;;;;;35.18;34.47;99044.06;5072338;28;20633;-66
2022/07/27 05:23:41;;;;;;;17.88;11.95;;;;;;;35.47;33.80;99044.19;5071684;28;20196;-66
2022/07/27 05:26:08;;;;;;;13.43;11.13;;;;;;;35.81;33.02;99056.19;5072306;28;20191;-68
2022/07/27 05:28:35;;;;;;;12.70;10.38;;;;;;;35.80;33.48;99046.31;5071970;28;20192;-68
2022/07/27 05:31:02;;;;;;;16.15;10.57;;;;;;;35.94;32.67;99050.09;5073088;28;20204;-66
2022/07/27 05:33:29;;;;;;;14.27;10.02;;;;;;;36.26;32.02;99056.84;5066374;28;20283;-68
2022/07/27 05:35:56;;;;;;;12.43;9.55;;;;;;;36.45;31.74;99053.94;5073067;28;20204;-68
2022/07/27 05:38:24;;;;;;;18.17;10.30;;;;;;;36.67;31.58;99049.44;5073081;28;20199;-70
2022/07/27 05:40:51;;;;;;;11.82;9.35;;;;;;;36.83;31.52;99044.50;5072739;28;20245;-69
2022/07/27 05:43:18;;;;;;;10.07;8.30;;;;;;;37.14;30.41;99057.88;5072745;28;20196;-68
2022/07/27 05:45:45;;;;;;;12.70;9.05;;;;;;;37.46;30.19;99056.19;5072428;28;20220;-69
2022/07/27 05:48:12;;;;;;;14.23;9.25;;;;;;;37.80;29.64;99052.09;5072056;28;20630;-68
2022/07/27 05:50:39;;;;;;;13.90;9.48;;;;;;;37.83;29.64;99051.34;5071816;28;20192;-70
2022/07/27 05:53:05;;;;;;;18.58;8.82;;;;;;;38.11;29.13;99050.72;5071653;28;20208;-73
2022/07/27 05:55:34;;;;;;;14.55;8.63;;;;;;;38.18;28.70;99053.53;5072286;28;20211;-71
2022/07/27 05:58:00;;;;;;;9.50;8.52;;;;;;;37.98;29.38;99057.75;5071794;28;20187;-68
2022/07/27 06:00:27;;;;;;;10.93;8.65;;;;;;;38.02;29.25;99051.06;5071930;28;20663;-66
2022/07/27 06:02:54;;;;;;;13.63;9.60;;;;;;;38.12;29.12;99053.09;5072179;28;20250;-68
2022/07/27 06:05:20;;;;;;;9.32;8.73;;;;;;;38.15;29.34;99052.34;5072186;28;20220;-70
2022/07/27 06:07:58;;;;;;;9.20;8.40;;;;;;;38.43;28.11;99052.47;5071696;28;20245;-68
2022/07/27 06:10:25;;;;;;;10.35;8.30;;;;;;;38.69;27.95;99049.41;5071996;28;20184;-67
2022/07/27 06:12:54;;;;;;;11.48;8.65;;;;;;;38.24;28.92;99050.00;5071418;28;20202;-66
2022/07/27 06:15:21;;;;;;;9.15;8.35;;;;;;;38.30;28.57;99042.91;5072219;28;20192;-71
2022/07/27 06:17:51;;;;;;;12.80;8.63;;;;;;;38.18;29.29;99034.13;5072405;28;20272;-67
2022/07/27 06:20:19;;;;;;;9.30;8.23;;;;;;;38.08;28.98;99035.66;5072592;28;20192;-68
2022/07/27 06:22:48;;;;;;;40.42;10.50;;;;;;;38.06;29.46;99042.78;5072001;28;20204;-67
2022/07/27 06:25:15;;;;;;;9.80;8.25;;;;;;;37.84;29.66;99036.28;5072348;28;20298;-68
2022/07/27 06:27:43;;;;;;;18.23;8.40;;;;;;;37.83;29.55;99040.25;5070750;28;20203;-67
2022/07/27 06:30:13;;;;;;;9.45;8.75;;;;;;;37.78;29.56;99040.59;5071026;28;20196;-67
2022/07/27 06:32:39;;;;;;;17.30;8.20;;;;;;;37.66;30.25;99040.91;5069844;28;20253;-68
2022/07/27 06:35:07;;;;;;;8.43;7.93;;;;;;;37.87;29.73;99041.06;5070137;28;20195;-66
2022/07/27 06:37:35;;;;;;;9.18;8.43;;;;;;;37.37;29.96;99039.09;5071114;28;20198;-67
2022/07/27 06:40:02;;;;;;;9.10;8.18;;;;;;;37.63;30.01;99041.69;5070798;28;20191;-67
2022/07/27 06:42:29;;;;;;;8.40;7.95;;;;;;;37.71;29.09;99043.31;5070939;28;20208;-67
2022/07/27 06:44:56;;;;;;;8.82;8.10;;;;;;;37.08;29.92;99029.69;5070749;28;20220;-65
2022/07/27 06:47:24;;;;;;;10.38;9.00;;;;;;;36.96;30.41;99040.28;5071088;28;20234;-67
2022/07/27 06:49:51;;;;;;;9.98;9.18;;;;;;;36.95;30.57;99033.16;5072307;28;20192;-67
2022/07/27 06:52:18;;;;;;;12.20;8.38;;;;;;;37.03;30.67;99026.50;5066690;28;20200;-70
2022/07/27 06:54:45;;;;;;;9.95;9.05;;;;;;;37.06;30.42;99020.19;5062414;28;20226;-73
2022/07/27 06:57:11;;;;;;;8.73;8.13;;;;;;;37.03;30.58;99020.97;5057756;28;20255;-67
2022/07/27 06:59:38;;;;;;;9.65;8.57;;;;;;;37.24;30.08;99026.72;5067172;28;20189;-68
2022/07/27 07:02:05;;;;;;;9.07;7.97;;;;;;;37.42;30.21;99018.53;5071009;28;20269;-66
2022/07/27 07:04:33;;;;;;;20.05;9.90;;;;;;;37.36;30.01;99015.34;5068189;28;20220;-66
2022/07/27 07:07:00;;;;;;;8.25;7.60;;;;;;;37.66;29.54;99013.19;5069477;28;20668;-66
2022/07/27 07:09:27;;;;;;;8.55;7.88;;;;;;;37.79;29.30;99011.69;5059557;28;20223;-67
2022/07/27 07:11:54;;;;;;;8.88;8.27;;;;;;;38.03;29.15;99011.06;5050421;28;20255;-68
2022/07/27 07:14:21;;;;;;;13.00;8.60;;;;;;;38.15;28.82;99009.91;5050352;28;20192;-66
2022/07/27 07:16:48;;;;;;;19.15;9.05;;;;;;;38.09;28.83;99006.72;5050568;28;20275;-70
2022/07/27 07:19:15;;;;;;;10.43;8.88;;;;;;;38.14;28.47;99014.69;5049895;28;20291;-66
2022/07/27 07:21:43;;;;;;;8.70;8.00;;;;;;;38.17;29.14;99011.09;5049283;28;20621;-66
2022/07/27 07:24:10;;;;;;;10.55;9.38;;;;;;;38.26;28.43;99008.78;5050082;28;20552;-67
2022/07/27 07:26:38;;;;;;;9.95;9.20;;;;;;;37.77;29.17;99002.97;5062225;28;20192;-66
2022/07/27 07:29:05;;;;;;;9.02;8.57;;;;;;;37.11;30.50;98997.69;5069862;28;20192;-69
2022/07/27 07:31:32;;;;;;;14.18;8.80;;;;;;;37.40;29.80;98993.19;5051157;28;20189;-66
2022/07/27 07:33:59;;;;;;;11.40;9.43;;;;;;;37.33;29.51;98999.47;5051068;28;20204;-66
2022/07/27 07:36:26;;;;;;;14.77;8.85;;;;;;;37.03;30.16;98990.50;5058168;28;20195;-66
2022/07/27 07:38:54;;;;;;;16.58;10.20;;;;;;;37.27;29.88;98984.34;5071537;28;20192;-68
2022/07/27 07:41:22;;;;;;;10.00;9.40;;;;;;;37.49;29.95;98991.66;5071203;28;20215;-66
2022/07/27 07:43:50;;;;;;;13.93;9.07;;;;;;;37.60;30.06;99003.63;5071354;28;20199;-66
2022/07/27 07:46:17;;;;;;;11.07;10.05;;;;;;;37.31;29.67;98995.50;5071350;28;20273;-66
2022/07/27 07:48:44;;;;;;;10.00;9.25;;;;;;;37.56;29.15;98988.94;5071299;28;20613;-66
2022/07/27 07:51:11;;;;;;;11.05;10.20;;;;;;;37.21;29.60;98985.91;5072022;28;20192;-65
2022/07/27 07:53:38;;;;;;;11.93;11.02;;;;;;;37.31;29.31;98974.09;5070418;28;20745;-66
2022/07/27 07:56:06;;;;;;;18.63;11.90;;;;;;;37.26;29.53;98977.25;5070789;28;20257;-66
2022/07/27 07:58:33;;;;;;;12.32;11.32;;;;;;;37.55;28.76;98979.03;5071552;28;20192;-65
2022/07/27 08:01:00;;;;;;;17.33;11.65;;;;;;;37.82;28.56;98982.38;5059095;28;20752;-66
2022/07/27 08:03:26;;;;;;;12.88;11.85;;;;;;;36.89;29.86;98976.50;5070806;28;20249;-66
2022/07/27 08:05:53;;;;;;;12.27;11.60;;;;;;;36.89;30.02;98974.53;5071156;28;20223;-65
2022/07/27 08:08:20;;;;;;;13.02;11.75;;;;;;;36.87;30.19;98984.41;5070746;28;20214;-65
2022/07/27 08:10:47;;;;;;;12.52;11.65;;;;;;;37.09;30.78;98966.78;5071232;28;20206;-65
2022/07/27 08:13:15;;;;;;;11.73;10.70;;;;;;;37.63;29.43;98979.91;5071322;28;20196;-65
2022/07/27 08:15:42;;;;;;;13.15;11.77;;;;;;;37.99;28.71;98978.88;5070825;28;20651;-65
2022/07/27 08:18:09;;;;;;;12.35;11.55;;;;;;;38.02;28.20;98983.66;5070710;28;20200;-65
2022/07/27 08:20:36;;;;;;;12.63;11.52;;;;;;;36.86;29.99;98974.50;5071257;28;20279;-69
2022/07/27 08:23:03;;;;;;;12.63;11.63;;;;;;;37.43;29.46;98971.00;5069832;28;20188;-67
2022/07/27 08:25:31;;;;;;;15.20;12.18;;;;;;;37.34;28.85;98976.09;5070314;28;20234;-65
2022/07/27 08:27:58;;;;;;;12.13;11.07;;;;;;;37.28;29.07;98969.34;5069921;28;20257;-65
2022/07/27 08:30:26;;;;;;;13.70;12.32;;;;;;;37.27;29.51;98972.50;5068132;28;20199;-65
2022/07/27 08:32:57;;;;;;;16.77;12.35;;;;;;;37.60;28.41;98973.13;5069242;28;20245;-65
2022/07/27 08:35:24;;;;;;;14.05;10.70;;;;;;;37.55;27.97;98973.47;5072229;28;20574;-65
2022/07/27 08:37:51;;;;;;;14.43;11.57;;;;;;;37.25;28.08;98975.66;5071312;28;20192;-66
2022/07/27 08:40:19;;;;;;;13.88;11.63;;;;;;;37.54;28.12;98971.88;5071328;28;20270;-66
2022/07/27 08:42:46;;;;;;;14.02;11.45;;;;;;;37.41;27.64;98965.06;5072647;28;20270;-67
2022/07/27 08:45:15;;;;;;;12.02;10.90;;;;;;;37.06;27.50;98957.28;5070994;28;20269;-71
2022/07/27 08:47:44;;;;;;;11.85;10.77;;;;;;;37.51;27.18;98967.09;5071250;28;20231;-69
2022/07/27 08:50:23;;;;;;;14.68;10.68;;;;;;;37.57;27.60;98960.03;5070157;28;20228;-66
2022/07/27 08:52:55;;;;;;;12.48;11.27;;;;;;;38.06;27.44;98957.56;5070967;28;20640;-68
2022/07/27 08:55:23;;;;;;;12.27;10.43;;;;;;;38.20;27.06;98965.94;5070942;28;20617;-68
2022/07/27 08:57:50;;;;;;;12.18;10.85;;;;;;;38.43;26.30;98963.63;5053876;28;20255;-66
2022/07/27 09:00:18;;;;;;;16.10;10.85;;;;;;;38.39;27.44;98960.06;5051126;28;20196;-69
2022/07/27 09:02:46;;;;;;;12.98;10.70;;;;;;;37.92;27.27;98949.13;5069741;28;20200;-67
2022/07/27 09:05:14;;;;;;;12.57;11.57;;;;;;;37.81;27.93;98953.88;5070193;28;20216;-66
2022/07/27 09:07:41;;;;;;;18.60;11.00;;;;;;;37.91;27.50;98953.09;5072490;28;20263;-68
2022/07/27 09:10:08;;;;;;;10.63;9.98;;;;;;;38.38;26.49;98949.34;5071661;28;20563;-66
2022/07/27 09:12:35;;;;;;;11.82;10.55;;;;;;;37.72;27.54;98944.31;5072968;28;20272;-65
2022/07/27 09:15:09;;;;;;;12.35;11.60;;;;;;;38.32;26.46;98950.88;5072001;28;20296;-65
2022/07/27 09:17:36;;;;;;;11.00;10.15;;;;;;;38.82;25.99;98950.59;5071080;28;20257;-67
2022/07/27 09:20:06;;;;;;;12.07;11.15;;;;;;;38.65;26.20;98934.72;5071764;28;20254;-69
2022/07/27 09:22:46;;;;;;;11.63;10.55;;;;;;;38.04;27.25;98940.50;5071156;28;20184;-68
2022/07/27 09:25:15;;;;;;;11.77;10.52;;;;;;;38.34;26.45;98931.88;5072214;28;20207;-68
2022/07/27 09:27:42;;;;;;;12.10;10.90;;;;;;;38.79;25.71;98933.94;5072499;28;20218;-67
2022/07/27 09:30:11;;;;;;;11.55;10.77;;;;;;;39.03;25.80;98935.97;5071973;28;20270;-67
2022/07/27 09:32:39;;;;;;;12.48;11.52;;;;;;;38.50;26.21;98935.88;5072069;28;20249;-69
2022/07/27 09:35:17;;;;;;;11.75;10.52;;;;;;;38.36;26.22;98930.28;5072194;28;20200;-68
2022/07/27 09:37:44;;;;;;;12.10;10.88;;;;;;;38.69;26.20;98918.06;5072024;28;20196;-68
2022/07/27 09:40:14;;;;;;;11.98;9.85;;;;;;;38.99;25.51;98933.19;5061151;28;20203;-73
2022/07/27 09:42:42;;;;;;;32.40;12.25;;;;;;;39.21;24.99;98923.66;5061782;28;20200;-69
2022/07/27 09:45:30;;;;;;;13.40;10.73;;;;;;;38.97;26.00;98916.13;5070503;28;20220;-68
2022/07/27 09:48:09;;;;;;;14.30;10.95;;;;;;;38.80;26.41;98922.44;5072265;28;20224;-71
2022/07/27 09:50:40;;;;;;;11.88;10.73;;;;;;;39.16;26.04;98917.69;5072196;28;20203;-67
2022/07/27 09:53:14;;;;;;;10.52;9.70;;;;;;;39.42;25.52;98920.84;5072105;28;20279;-67
2022/07/27 09:55:41;;;;;;;10.70;10.02;;;;;;;38.93;26.01;98915.31;5070573;28;20264;-67
2022/07/27 09:58:10;;;;;;;12.48;9.98;;;;;;;39.17;25.54;98913.72;5071302;28;20704;-68
2022/07/27 10:00:37;;;;;;;12.27;9.90;;;;;;;39.28;25.32;98917.28;5071312;28;20284;-67
2022/07/27 10:03:04;;;;;;;10.98;10.15;;;;;;;39.35;25.23;98909.75;5071644;28;20200;-69
2022/07/27 10:05:31;;;;;;;11.20;10.23;;;;;;;39.44;25.47;98906.56;5051831;28;20224;-68
2022/07/27 10:07:59;;;;;;;11.27;10.25;;;;;;;39.61;24.63;98905.69;5070678;28;20253;-68
2022/07/27 10:10:27;;;;;;;10.57;9.82;;;;;;;39.70;24.26;98906.88;5070304;28;20252;-72
2022/07/27 10:12:54;;;;;;;11.05;10.35;;;;;;;39.87;24.42;98917.16;5071457;28;20656;-69
2022/07/27 10:15:21;;;;;;;10.70;10.00;;;;;;;40.00;24.49;98901.59;5070191;28;20200;-68
2022/07/27 10:17:54;;;;;;;10.10;9.32;;;;;;;40.02;24.64;98896.41;5071690;28;20192;-68
2022/07/27 10:20:21;;;;;;;10.65;9.15;;;;;;;39.81;24.00;98893.72;5069528;28;20192;-68
2022/07/27 10:22:55;;;;;;;9.98;9.20;;;;;;;39.44;24.08;98901.75;5070121;28;20204;-68
2022/07/27 10:25:25;;;;;;;11.13;10.02;;;;;;;38.77;24.96;98906.56;5069806;28;20219;-67
2022/07/27 10:28:10;;;;;;;16.17;9.88;;;;;;;38.92;25.36;98894.31;5070372;28;20613;-68
2022/07/27 10:30:37;;;;;;;10.05;9.23;;;;;;;39.27;24.37;98896.25;5070012;28;20196;-73
2022/07/27 10:33:13;;;;;;;9.10;8.40;;;;;;;39.54;23.32;98895.41;5069757;28;20698;-68
2022/07/27 10:35:40;;;;;;;10.18;9.48;;;;;;;39.77;24.32;98886.59;5071539;28;20196;-68
2022/07/27 10:38:10;;;;;;;8.45;7.85;;;;;;;39.70;22.26;98898.53;5069943;28;20196;-70
2022/07/27 10:40:38;;;;;;;8.50;7.80;;;;;;;39.59;22.74;98886.63;5070631;28;20684;-75
2022/07/27 10:43:17;;;;;;;8.57;7.90;;;;;;;39.54;22.65;98884.28;5071553;28;20261;-71
2022/07/27 10:45:45;;;;;;;8.40;7.50;;;;;;;39.65;22.67;98895.34;5069821;28;20215;-70
2022/07/27 10:48:37;;;;;;;8.70;8.20;;;;;;;39.36;22.75;98891.09;5070794;28;20231;-70
2022/07/27 10:51:07;;;;;;;8.63;7.72;;;;;;;39.62;22.21;98888.63;5069194;28;20286;-71
2022/07/27 10:53:35;;;;;;;9.43;8.82;;;;;;;39.87;21.78;98889.34;5069513;28;20608;-69
2022/07/27 10:56:04;;;;;;;8.75;8.10;;;;;;;39.84;22.35;98881.78;5068871;28;20200;-69
2022/07/27 10:58:46;;;;;;;8.68;8.00;;;;;;;39.59;22.46;98877.47;5071425;28;20249;-68
2022/07/27 11:01:14;;;;;;;8.27;7.45;;;;;;;39.03;22.72;98875.63;5061853;28;20245;-72
2022/07/27 11:03:46;;;;;;;9.65;8.68;;;;;;;39.53;22.29;98877.13;5066079;28;20258;-68
2022/07/27 11:06:25;;;;;;;8.80;7.97;;;;;;;39.92;21.32;98872.22;5050003;28;20213;-68
2022/07/27 11:08:53;;;;;;;8.85;8.00;;;;;;;40.01;21.74;98869.00;5048360;28;20611;-70
2022/07/27 11:11:24;;;;;;;8.63;8.02;;;;;;;40.10;21.36;98861.78;5048585;28;20762;-69
2022/07/27 11:13:52;;;;;;;8.15;7.40;;;;;;;40.27;21.34;98872.03;5051452;28;20185;-67
2022/07/27 11:16:20;;;;;;;9.35;8.07;;;;;;;40.35;21.05;98864.41;5051839;28;20586;-67
2022/07/27 11:18:55;;;;;;;8.73;7.72;;;;;;;40.44;21.05;98859.97;5051245;28;20200;-68
2022/07/27 11:21:23;;;;;;;9.27;8.60;;;;;;;40.65;20.64;98859.84;5051944;28;20254;-67
2022/07/27 11:23:52;;;;;;;10.40;9.00;;;;;;;40.74;20.17;98862.94;5051592;28;20275;-67
2022/07/27 11:26:19;;;;;;;11.70;9.02;;;;;;;40.72;20.39;98853.41;5068733;28;20273;-67